TimePDT,TemperatureF,Dew PointF,Humidity,Sea Level PressureIn,VisibilityMPH,Wind Direction,Wind SpeedMPH,Gust SpeedMPH,PrecipitationIn,Events,Conditions,WindDirDegrees,DateUTC
12:58 AM,46.2,32.0,58,30.15,10.0,WSW,4.6,-,N/A,,Clear,240,2013-03-12 07:58:00
1:58 AM,45.3,32.2,60,30.15,10.0,WSW,2.3,-,N/A,,Clear,250,2013-03-12 08:58:00
2:58 AM,43.3,32.2,65,30.15,10.0,WSW,5.8,-,N/A,,Clear,250,2013-03-12 09:58:00
3:58 AM,41.4,31.5,68,30.15,10.0,West,6.9,-,N/A,,Clear,260,2013-03-12 10:58:00
4:58 AM,40.8,29.5,64,30.17,10.0,SW,2.3,-,N/A,,Clear,230,2013-03-12 11:58:00
5:58 AM,42.1,31.5,66,30.18,10.0,SW,4.6,-,N/A,,Clear,220,2013-03-12 12:58:00
6:58 AM,38.8,28.6,67,30.19,10.0,Calm,Calm,-,N/A,,Clear,0,2013-03-12 13:58:00
7:58 AM,40.5,29.5,65,30.20,10.0,SW,2.3,-,N/A,,Clear,220,2013-03-12 14:58:00
8:58 AM,47.8,30.9,52,30.22,10.0,ENE,2.3,-,N/A,,Clear,70,2013-03-12 15:58:00
9:58 AM,54.1,27.9,36,30.23,10.0,Calm,Calm,-,N/A,,Clear,0,2013-03-12 16:58:00
10:58 AM,61.2,27.3,28,30.23,10.0,Calm,Calm,-,N/A,,Clear,0,2013-03-12 17:58:00
11:58 AM,64.6,25.2,22,30.22,10.0,SSE,2.3,-,N/A,,Clear,150,2013-03-12 18:58:00
12:58 PM,67.3,26.2,21,30.20,10.0,South,1.2,-,N/A,,Clear,180,2013-03-12 19:58:00
1:58 PM,69.4,25.5,19,30.17,10.0,NE,2.3,-,N/A,,Clear,50,2013-03-12 20:58:00
2:58 PM,71.4,24.8,17,30.15,10.0,East,1.2,-,N/A,,Clear,80,2013-03-12 21:58:00
3:58 PM,72.0,25.3,18,30.14,10.0,Variable,2.3,-,N/A,,Clear,0,2013-03-12 22:58:00
4:58 PM,73.0,25.0,17,30.13,10.0,Calm,Calm,-,N/A,,Clear,0,2013-03-12 23:58:00
5:58 PM,72.3,24.6,17,30.13,10.0,Calm,Calm,-,N/A,,Clear,0,2013-03-13 00:58:00
6:58 PM,69.4,25.9,20,30.14,10.0,SSE,4.6,-,N/A,,Clear,160,2013-03-13 01:58:00
7:58 PM,63.7,31.6,30,30.16,10.0,South,9.2,-,N/A,,Clear,190,2013-03-13 02:58:00
8:58 PM,61.9,29.5,29,30.18,10.0,WSW,8.1,-,N/A,,Clear,250,2013-03-13 03:58:00
9:58 PM,56.8,31.6,38,30.20,10.0,WSW,6.9,-,N/A,,Clear,250,2013-03-13 04:58:00
10:58 PM,53.2,32.4,45,30.21,10.0,West,4.6,-,N/A,,Clear,270,2013-03-13 05:58:00
11:58 PM,52.2,34.2,50,30.22,10.0,West,4.6,-,N/A,,Clear,260,2013-03-13 06:58:00